Time;durP1;ratioP1;P1;durP2;ratioP2;P2;SDS_P1;SDS_P2;PMS_P1;PMS_P2;Temp;Humidity;BMP_temperature;BMP_pressure;BME280_temperature;BME280_humidity;BME280_pressure;Samples;Min_cycle;Max_cycle;Signal;HPM_P1;HPM_P2
2021/11/09 00:00:30;;;;;;;8.53;4.50;;;;;;;8.32;59.37;100472.00;1788454;80;20925;-69
2021/11/09 00:02:58;;;;;;;8.58;4.70;;;;;;;8.31;59.37;100467.69;1788313;80;20944;-68
2021/11/09 00:05:28;;;;;;;7.70;4.35;;;;;;;8.30;59.40;100470.80;1787807;80;21427;-69
2021/11/09 00:08:01;;;;;;;6.62;3.80;;;;;;;8.32;59.43;100468.05;1787987;80;21791;-69
2021/11/09 00:10:25;;;;;;;7.25;4.35;;;;;;;8.31;59.56;100467.69;1787166;80;20960;-69
2021/11/09 00:12:55;;;;;;;9.55;4.37;;;;;;;8.29;59.53;100467.77;1787688;80;20977;-70
2021/11/09 00:15:23;;;;;;;8.55;4.65;;;;;;;8.26;59.43;100468.46;1783756;80;21419;-70
2021/11/09 00:17:53;;;;;;;9.23;4.78;;;;;;;8.22;59.46;100474.89;1758501;80;20992;-70
2021/11/09 00:20:21;;;;;;;7.25;4.45;;;;;;;8.18;59.53;100485.23;1758144;81;22472;-69
2021/11/09 00:22:48;;;;;;;8.18;4.33;;;;;;;8.13;59.50;100481.63;1758279;80;20949;-70
2021/11/09 00:25:15;;;;;;;5.55;3.90;;;;;;;8.10;59.57;100484.44;1766296;80;21383;-69
2021/11/09 00:27:42;;;;;;;10.13;4.47;;;;;;;8.06;59.62;100478.18;1761192;81;21008;-69
2021/11/09 00:30:10;;;;;;;7.67;4.40;;;;;;;8.01;59.68;100481.14;1743775;81;21015;-69
2021/11/09 00:32:43;;;;;;;7.83;4.42;;;;;;;7.98;59.70;100489.21;1744975;81;22043;-69
2021/11/09 00:35:08;;;;;;;6.67;4.10;;;;;;;7.94;59.77;100485.11;1739999;81;21039;-69
2021/11/09 00:37:35;;;;;;;8.60;3.90;;;;;;;7.90;59.84;100494.13;1766867;81;20952;-69
2021/11/09 00:40:01;;;;;;;6.72;3.67;;;;;;;7.87;59.91;100493.88;1753606;81;21478;-68
2021/11/09 00:42:29;;;;;;;8.88;4.50;;;;;;;7.85;59.97;100487.04;1737767;81;21007;-68
2021/11/09 00:44:56;;;;;;;7.80;4.45;;;;;;;7.83;60.11;100492.41;1739082;81;21844;-70
2021/11/09 00:47:22;;;;;;;9.68;6.17;;;;;;;7.82;60.14;100499.09;1736275;81;21396;-69
2021/11/09 00:49:49;;;;;;;13.50;8.70;;;;;;;7.79;60.16;100500.11;1760793;81;21079;-69
2021/11/09 00:52:16;;;;;;;14.03;9.45;;;;;;;7.75;60.27;100505.20;1766804;81;20968;-69
2021/11/09 00:54:43;;;;;;;14.25;9.68;;;;;;;7.72;60.31;100501.00;1755886;81;21565;-70
2021/11/09 00:57:09;;;;;;;15.88;9.78;;;;;;;7.71;60.33;100501.07;1744200;81;21833;-69
2021/11/09 00:59:36;;;;;;;14.85;8.98;;;;;;;7.66;60.44;100497.92;1744138;81;20955;-68
2021/11/09 01:02:03;;;;;;;13.65;8.75;;;;;;;7.62;60.52;100501.20;1764129;81;21019;-70
2021/11/09 01:04:30;;;;;;;9.90;6.40;;;;;;;7.57;60.64;100505.09;1749922;81;20979;-69
2021/11/09 01:06:57;;;;;;;6.75;4.53;;;;;;;7.53;60.88;100499.20;1749376;82;20952;-69
2021/11/09 01:09:23;;;;;;;9.88;6.75;;;;;;;7.49;61.01;100500.31;1761213;81;21845;-69
2021/11/09 01:11:53;;;;;;;10.18;5.97;;;;;;;7.45;61.16;100497.53;1737422;81;21098;-69
2021/11/09 01:14:22;;;;;;;12.93;6.53;;;;;;;7.41;61.37;100503.44;1732124;81;21491;-69
2021/11/09 01:16:49;;;;;;;11.20;6.30;;;;;;;7.38;61.58;100504.95;1731778;81;21068;-69
2021/11/09 01:19:16;;;;;;;12.10;6.30;;;;;;;7.34;61.77;100503.95;1731524;83;21016;-69
2021/11/09 01:21:42;;;;;;;10.15;6.20;;;;;;;7.31;61.86;100504.97;1747196;81;22500;-69
2021/11/09 01:24:11;;;;;;;10.82;6.37;;;;;;;7.29;62.01;100508.64;1760205;81;21013;-70
2021/11/09 01:26:39;;;;;;;10.78;5.90;;;;;;;7.27;62.16;100513.16;1761348;81;21080;-68
2021/11/09 01:29:06;;;;;;;11.93;6.65;;;;;;;7.24;62.36;100519.45;1779044;80;20972;-69
2021/11/09 01:31:34;;;;;;;12.03;6.92;;;;;;;7.23;62.44;100515.11;1768714;80;21031;-69
2021/11/09 01:34:00;;;;;;;11.65;5.90;;;;;;;7.22;62.56;100516.05;1765017;80;21859;-69
2021/11/09 01:36:27;;;;;;;7.85;5.10;;;;;;;7.23;62.60;100518.21;1764898;79;20939;-69
2021/11/09 01:38:53;;;;;;;6.33;4.47;;;;;;;7.24;62.71;100514.20;1764373;81;21406;-69
2021/11/09 01:41:20;;;;;;;10.08;5.00;;;;;;;7.27;62.76;100519.25;1776030;80;21497;-68
2021/11/09 01:43:48;;;;;;;8.00;4.10;;;;;;;7.29;62.70;100519.15;1761670;80;21028;-68
2021/11/09 01:46:15;;;;;;;7.85;4.33;;;;;;;7.31;62.67;100517.26;1758657;79;22829;-71
2021/11/09 01:48:41;;;;;;;7.17;4.00;;;;;;;7.30;62.70;100517.73;1770815;80;21411;-69
2021/11/09 01:51:11;;;;;;;9.15;4.62;;;;;;;7.30;62.75;100520.83;1784329;80;21079;-70
2021/11/09 01:53:38;;;;;;;7.12;4.30;;;;;;;7.28;62.70;100525.34;1781605;80;21051;-70
2021/11/09 01:56:07;;;;;;;9.00;4.83;;;;;;;7.25;62.73;100527.70;1753685;80;21008;-69
2021/11/09 01:58:35;;;;;;;10.23;4.15;;;;;;;7.25;62.85;100526.86;1777159;80;21807;-69
2021/11/09 02:01:06;;;;;;;6.97;4.37;;;;;;;7.24;62.97;100529.96;1775523;80;21041;-68
2021/11/09 02:03:37;;;;;;;12.17;4.13;;;;;;;7.24;62.92;100526.02;1763336;80;20953;-70
2021/11/09 02:06:04;;;;;;;8.05;4.17;;;;;;;7.24;62.96;100530.41;1753232;81;21648;-69
2021/11/09 02:08:32;;;;;;;7.05;4.05;;;;;;;7.22;62.99;100529.19;1765898;80;21001;-70
2021/11/09 02:10:59;;;;;;;6.83;3.92;;;;;;;7.22;63.07;100535.76;1761776;81;21928;-68
2021/11/09 02:13:26;;;;;;;6.92;3.90;;;;;;;7.22;63.10;100529.19;1740537;81;20894;-68
2021/11/09 02:15:53;;;;;;;6.40;4.40;;;;;;;7.24;63.16;100535.22;1779923;80;20953;-69
2021/11/09 02:18:20;;;;;;;7.47;4.08;;;;;;;7.23;63.22;100534.81;1781483;80;21005;-69
2021/11/09 02:20:57;;;;;;;7.08;4.25;;;;;;;7.25;63.24;100542.63;1771314;80;21080;-69
2021/11/09 02:23:25;;;;;;;7.53;4.40;;;;;;;7.26;63.20;100541.21;1753527;81;22459;-68
2021/11/09 02:25:52;;;;;;;4.55;3.30;;;;;;;7.26;63.22;100540.38;1753077;81;20953;-68
2021/11/09 02:28:19;;;;;;;6.78;3.92;;;;;;;7.26;63.29;100543.84;1725986;81;21455;-69
2021/11/09 02:30:46;;;;;;;6.15;3.42;;;;;;;7.24;63.29;100536.53;1753164;81;20988;-68
2021/11/09 02:33:14;;;;;;;6.78;3.75;;;;;;;7.25;63.32;100540.84;1754234;80;20954;-69
2021/11/09 02:35:41;;;;;;;8.08;4.12;;;;;;;7.23;63.36;100538.75;1753116;81;22825;-69
2021/11/09 02:38:07;;;;;;;6.05;3.60;;;;;;;7.23;63.36;100539.23;1778427;80;21012;-70
2021/11/09 02:40:35;;;;;;;6.72;4.15;;;;;;;7.24;63.43;100541.78;1750661;80;20880;-69
2021/11/09 02:43:06;;;;;;;7.75;3.87;;;;;;;7.23;63.42;100534.81;1747575;82;21001;-68
2021/11/09 02:45:44;;;;;;;6.92;3.98;;;;;;;7.21;63.46;100536.70;1747649;82;20973;-69
2021/11/09 02:48:14;;;;;;;7.40;3.90;;;;;;;7.21;63.51;100534.55;1750598;80;21829;-70
2021/11/09 02:50:40;;;;;;;8.08;4.20;;;;;;;7.21;63.62;100541.95;1763316;80;21372;-68
2021/11/09 02:53:11;;;;;;;6.47;4.10;;;;;;;7.21;63.68;100538.48;1753261;81;21029;-69
2021/11/09 02:55:49;;;;;;;8.35;4.58;;;;;;;7.23;63.69;100537.91;1752918;81;20968;-68
2021/11/09 03:03:39;;;;;;;9.10;5.40;;;;;;;7.22;63.84;100541.02;1769264;80;21012;-68
2021/11/09 03:08:40;;;;;;;10.48;5.42;;;;;;;7.16;63.92;100543.57;1753999;80;20982;-68
2021/11/09 03:11:04;;;;;;;8.35;4.90;;;;;;;7.18;64.05;100544.31;1756325;80;20949;-70
2021/11/09 03:13:32;;;;;;;7.85;4.70;;;;;;;7.19;64.14;100550.41;1747624;82;22634;-69
2021/11/09 03:16:06;;;;;;;14.70;8.90;;;;;;;7.20;64.19;100548.16;1759084;80;20976;-68
2021/11/09 03:18:38;;;;;;;10.18;5.12;;;;;;;7.21;64.23;100556.41;1749705;80;21526;-69
2021/11/09 03:40:11;;;;;;;7.58;4.35;;;;;;;7.25;64.76;100556.61;1764646;80;21862;-68
2021/11/09 03:45:21;;;;;;;7.90;4.50;;;;;;;7.26;64.89;100559.60;1751361;80;20968;-69
2021/11/09 03:47:51;;;;;;;6.47;3.98;;;;;;;7.27;64.96;100561.28;1753095;81;20960;-68
2021/11/09 03:50:17;;;;;;;5.83;3.80;;;;;;;7.27;65.04;100563.91;1753211;81;20996;-69
2021/11/09 03:53:00;;;;;;;8.03;5.60;;;;;;;7.28;65.11;100570.86;1761274;80;21830;-68
2021/11/09 03:58:15;;;;;;;7.90;5.00;;;;;;;7.29;65.26;100580.89;1754284;80;21100;-68
2021/11/09 04:00:46;;;;;;;6.70;4.60;;;;;;;7.30;65.32;100586.05;1747113;82;20953;-69
2021/11/09 04:05:53;;;;;;;8.65;5.05;;;;;;;7.31;65.43;100586.89;1772702;80;21748;-68
2021/11/09 04:08:41;;;;;;;8.83;4.58;;;;;;;7.32;65.51;100588.57;1784242;80;20996;-69
2021/11/09 04:11:05;;;;;;;7.47;4.95;;;;;;;7.30;65.54;100572.91;1781863;80;20953;-68
2021/11/09 04:13:36;;;;;;;7.50;4.20;;;;;;;7.31;65.60;100579.84;1780092;80;21020;-69
2021/11/09 04:23:55;;;;;;;6.95;4.78;;;;;;;7.30;65.80;100583.41;1749065;81;21043;-68
2021/11/09 04:28:57;;;;;;;9.13;4.53;;;;;;;7.29;65.79;100591.40;1753158;81;20997;-69
2021/11/09 04:49:57;;;;;;;7.00;4.78;;;;;;;6.96;66.50;100600.42;1753302;81;21012;-69
2021/11/09 05:02:50;;;;;;;9.13;6.20;;;;;;;6.76;67.26;100620.48;1753587;81;21000;-72
2021/11/09 05:08:26;;;;;;;8.10;6.22;;;;;;;6.69;67.82;100623.08;1765977;80;21565;-72
2021/11/09 05:10:47;;;;;;;11.43;7.17;;;;;;;6.65;67.97;100635.52;1771511;80;21788;-71
2021/11/09 05:13:14;;;;;;;8.43;5.20;;;;;;;6.64;67.93;100643.48;1774620;80;20926;-71
2021/11/09 05:15:41;;;;;;;6.70;4.42;;;;;;;6.63;68.00;100644.43;1767019;80;21498;-71
2021/11/09 05:18:08;;;;;;;9.90;5.60;;;;;;;6.62;68.17;100647.52;1764036;80;20985;-71
2021/11/09 05:20:34;;;;;;;11.28;6.90;;;;;;;6.59;68.28;100646.41;1773689;80;21146;-68
2021/11/09 05:23:01;;;;;;;7.20;5.40;;;;;;;6.60;68.44;100658.12;1765460;79;21833;-72
2021/11/09 05:25:27;;;;;;;15.95;10.30;;;;;;;6.59;68.68;100665.61;1770982;80;21451;-73
2021/11/09 05:27:54;;;;;;;11.18;8.05;;;;;;;6.59;68.77;100670.02;1733627;80;20986;-72
2021/11/09 05:30:21;;;;;;;12.70;8.35;;;;;;;6.59;68.89;100677.89;1753776;81;20996;-72
2021/11/09 05:32:52;;;;;;;15.80;8.53;;;;;;;6.62;68.95;100675.55;1737313;80;21513;-72
2021/11/09 05:35:21;;;;;;;10.43;5.72;;;;;;;6.65;68.99;100684.55;1749781;80;22451;-73
2021/11/09 05:37:50;;;;;;;8.83;6.37;;;;;;;6.67;69.06;100688.80;1737164;81;21089;-72
2021/11/09 05:40:19;;;;;;;12.28;5.62;;;;;;;6.69;69.16;100686.08;1746663;81;21397;-72
2021/11/09 05:42:45;;;;;;;7.20;5.12;;;;;;;6.71;69.20;100692.92;1749721;80;21055;-71
2021/11/09 05:45:17;;;;;;;7.62;5.20;;;;;;;6.73;69.24;100702.86;1748064;80;21397;-76
2021/11/09 05:47:45;;;;;;;7.87;5.70;;;;;;;6.76;69.29;100701.86;1753993;81;21891;-74
2021/11/09 05:50:11;;;;;;;6.40;5.22;;;;;;;6.77;69.34;100712.27;1751918;80;21023;-73
2021/11/09 05:52:38;;;;;;;7.12;5.30;;;;;;;6.80;69.36;100711.23;1750565;80;21537;-76
2021/11/09 05:55:06;;;;;;;7.60;5.87;;;;;;;6.81;69.38;100715.08;1725043;82;20970;-71
2021/11/09 05:57:33;;;;;;;8.90;5.62;;;;;;;6.83;69.36;100721.08;1741713;80;21326;-73
2021/11/09 05:59:59;;;;;;;11.03;6.90;;;;;;;6.87;69.37;100714.73;1747306;81;21802;-72
2021/11/09 06:02:27;;;;;;;10.78;5.50;;;;;;;6.90;69.36;100708.44;1751777;80;21055;-73
2021/11/09 06:04:54;;;;;;;9.25;5.58;;;;;;;6.92;69.29;100703.94;1743532;81;20964;-74
2021/11/09 06:07:21;;;;;;;8.58;5.30;;;;;;;6.92;69.26;100693.44;1769485;80;21483;-74
2021/11/09 06:09:49;;;;;;;7.92;4.42;;;;;;;6.90;69.14;100691.37;1725845;82;21400;-73
2021/11/09 06:12:15;;;;;;;5.70;3.67;;;;;;;6.86;68.82;100697.28;1759069;81;21809;-73
2021/11/09 06:14:42;;;;;;;5.67;3.65;;;;;;;6.82;68.57;100706.73;1742097;81;21036;-73
2021/11/09 06:17:08;;;;;;;6.53;3.70;;;;;;;6.80;68.46;100705.52;1757814;81;21136;-74
2021/11/09 06:19:36;;;;;;;5.00;3.25;;;;;;;6.80;68.42;100708.61;1729993;83;21246;-74
2021/11/09 06:22:03;;;;;;;4.05;2.90;;;;;;;6.80;68.32;100709.92;1748134;81;20992;-74
2021/11/09 06:24:31;;;;;;;5.65;3.98;;;;;;;6.81;68.24;100708.52;1756476;81;21868;-74
2021/11/09 06:26:58;;;;;;;5.03;3.20;;;;;;;6.81;68.13;100712.92;1784026;78;21499;-75
2021/11/09 06:29:25;;;;;;;4.17;2.65;;;;;;;6.80;68.05;100721.73;1812105;79;21099;-74
2021/11/09 06:31:52;;;;;;;6.83;3.85;;;;;;;6.78;67.91;100725.77;1791529;80;21508;-74
2021/11/09 06:34:20;;;;;;;2.58;2.05;;;;;;;6.76;67.78;100741.23;1775195;80;21048;-73
2021/11/09 06:36:46;;;;;;;2.55;2.12;;;;;;;6.75;67.71;100747.39;1789394;80;22213;-70
2021/11/09 06:39:12;;;;;;;2.12;1.70;;;;;;;6.73;67.70;100743.55;1783560;80;21091;-70
2021/11/09 06:41:39;;;;;;;4.08;1.70;;;;;;;6.73;67.66;100738.30;1781017;80;20984;-70
2021/11/09 06:44:06;;;;;;;3.12;1.67;;;;;;;6.72;67.54;100745.80;1773591;79;21007;-70
2021/11/09 06:46:32;;;;;;;2.83;1.90;;;;;;;6.74;67.53;100746.55;1777249;80;21000;-70
2021/11/09 06:48:59;;;;;;;1.70;1.50;;;;;;;6.73;67.38;100733.05;1773695;80;22695;-71
2021/11/09 06:51:26;;;;;;;2.55;2.00;;;;;;;6.73;67.32;100735.67;1795455;79;20949;-70
2021/11/09 06:53:52;;;;;;;2.35;1.80;;;;;;;6.70;67.36;100745.05;1815179;79;20960;-70
2021/11/09 06:56:20;;;;;;;5.22;3.00;;;;;;;6.72;67.46;100751.05;1806973;79;21311;-70
2021/11/09 06:58:47;;;;;;;5.55;4.15;;;;;;;6.73;67.52;100760.61;1764231;81;20940;-70
2021/11/09 07:01:14;;;;;;;4.40;2.42;;;;;;;6.75;67.66;100769.70;1786362;80;21794;-69
2021/11/09 07:03:40;;;;;;;5.47;3.67;;;;;;;6.78;67.56;100769.55;1769780;80;20998;-69
2021/11/09 07:06:07;;;;;;;6.60;1.90;;;;;;;6.82;67.40;100772.37;1765811;80;21357;-69
2021/11/09 07:08:34;;;;;;;3.33;1.90;;;;;;;6.82;67.22;100775.84;1760803;80;20965;-70
2021/11/09 07:11:00;;;;;;;2.58;2.00;;;;;;;6.82;66.96;100773.68;1774734;80;21482;-70
2021/11/09 07:13:27;;;;;;;2.40;1.55;;;;;;;6.78;66.97;100775.65;1772935;80;22191;-71
2021/11/09 07:15:54;;;;;;;3.55;2.08;;;;;;;6.74;66.84;100778.05;1783905;80;21106;-70
2021/11/09 07:18:22;;;;;;;1.90;1.35;;;;;;;6.68;66.89;100781.05;1747797;81;20999;-70
2021/11/09 07:20:50;;;;;;;2.92;1.30;;;;;;;6.65;66.91;100790.85;1778175;80;21476;-70
2021/11/09 07:23:17;;;;;;;2.10;1.22;;;;;;;6.61;66.74;100791.50;1777683;80;20956;-70
2021/11/09 07:25:44;;;;;;;1.65;1.32;;;;;;;6.54;66.59;100790.14;1769045;80;21836;-69
2021/11/09 07:28:11;;;;;;;1.90;1.30;;;;;;;6.49;66.33;100793.04;1773407;80;21522;-69
2021/11/09 07:30:46;;;;;;;5.20;1.92;;;;;;;6.46;66.00;100798.91;1769772;80;21371;-69
2021/11/09 07:33:12;;;;;;;2.33;1.60;;;;;;;6.41;65.96;100798.33;1778625;80;20980;-72
2021/11/09 07:35:39;;;;;;;3.58;1.77;;;;;;;6.38;65.99;100801.13;1787983;80;21056;-71
2021/11/09 07:38:05;;;;;;;2.12;1.65;;;;;;;6.37;65.96;100807.28;1753111;80;22198;-73
2021/11/09 07:40:32;;;;;;;2.10;1.40;;;;;;;6.34;66.07;100811.39;1771204;80;21000;-73
2021/11/09 07:42:58;;;;;;;1.90;1.30;;;;;;;6.33;66.11;100820.20;1768627;80;21043;-72
2021/11/09 07:45:24;;;;;;;2.40;1.40;;;;;;;6.34;66.02;100820.58;1779371;80;21541;-72
2021/11/09 07:47:56;;;;;;;4.35;2.75;;;;;;;6.33;65.81;100826.76;1791188;80;21036;-72
2021/11/09 07:50:19;;;;;;;2.08;1.57;;;;;;;6.34;65.95;100832.38;1789298;80;21855;-69
2021/11/09 07:52:47;;;;;;;5.47;3.12;;;;;;;6.34;65.73;100830.61;1769663;80;21409;-71
2021/11/09 07:55:18;;;;;;;3.10;1.87;;;;;;;6.34;65.71;100837.16;1782801;80;20938;-70
2021/11/09 07:57:48;;;;;;;7.60;2.50;;;;;;;6.34;65.56;100841.09;1790444;80;21047;-70
2021/11/09 08:00:37;;;;;;;3.87;2.45;;;;;;;6.35;65.68;100840.63;1777327;79;37231;-70
2021/11/09 08:02:59;;;;;;;5.37;3.72;;;;;;;6.37;65.43;100852.77;1733699;81;22463;-68
2021/11/09 08:05:15;;;;;;;2.87;2.47;;;;;;;6.38;65.53;100861.02;1777607;80;21001;-73
2021/11/09 08:07:57;;;;;;;1.90;1.60;;;;;;;6.43;65.05;100868.62;1778946;80;20992;-73
2021/11/09 08:10:16;;;;;;;3.92;2.30;;;;;;;6.35;64.48;100869.49;1779928;80;20995;-71
2021/11/09 08:12:43;;;;;;;4.37;2.60;;;;;;;6.28;64.31;100876.40;1768185;80;21424;-71
2021/11/09 08:15:11;;;;;;;4.72;2.35;;;;;;;6.36;64.14;100873.81;1791017;80;20992;-72
2021/11/09 08:17:37;;;;;;;5.85;5.25;;;;;;;6.43;63.76;100875.17;1777918;80;21070;-74
2021/11/09 08:20:06;;;;;;;2.25;1.75;;;;;;;6.56;63.79;100876.19;1769356;80;20988;-75
2021/11/09 08:22:33;;;;;;;2.77;2.20;;;;;;;6.68;62.99;100886.05;1773425;80;20996;-74
2021/11/09 08:25:01;;;;;;;3.98;2.40;;;;;;;6.68;62.67;100898.33;1783229;80;21014;-72
2021/11/09 08:27:28;;;;;;;2.58;1.92;;;;;;;6.68;62.33;100895.70;1779946;80;21474;-73
2021/11/09 08:29:57;;;;;;;2.30;1.57;;;;;;;6.65;62.22;100901.94;1787112;80;21147;-71
2021/11/09 08:32:23;;;;;;;1.77;1.35;;;;;;;6.63;62.17;100907.75;1782640;79;21001;-70
2021/11/09 08:34:50;;;;;;;2.83;1.60;;;;;;;6.59;61.89;100916.27;1784029;80;21468;-73
2021/11/09 08:37:16;;;;;;;2.60;1.20;;;;;;;6.58;61.74;100913.72;1786307;80;20940;-71
2021/11/09 08:39:44;;;;;;;1.82;1.62;;;;;;;6.55;61.34;100921.27;1784051;79;21680;-70
2021/11/09 08:42:21;;;;;;;1.17;0.95;;;;;;;6.59;61.61;100922.83;1787177;79;20996;-75
2021/11/09 08:45:34;;;;;;;2.65;1.27;;;;;;;6.68;61.50;100924.11;1784573;79;21044;-71
2021/11/09 08:47:15;;;;;;;1.22;1.10;;;;;;;6.78;61.28;100933.64;1747766;79;21011;-69
2021/11/09 08:49:40;;;;;;;2.60;2.40;;;;;;;6.74;60.61;100936.88;1775584;79;21013;-68
2021/11/09 08:52:12;;;;;;;8.38;7.15;;;;;;;6.71;61.02;100937.05;1781286;79;21146;-70
2021/11/09 08:54:37;;;;;;;2.50;1.90;;;;;;;6.70;60.52;100933.20;1771385;79;20949;-71
2021/11/09 08:57:32;;;;;;;1.37;1.22;;;;;;;6.74;60.22;100934.25;1773175;79;20989;-71
2021/11/09 09:05:12;;;;;;;2.65;1.30;;;;;;;6.93;59.27;100940.66;1765249;79;21805;-73
2021/11/09 09:07:39;;;;;;;4.47;2.62;;;;;;;6.86;59.58;100944.58;1761248;80;21049;-72
2021/11/09 09:10:10;;;;;;;2.47;1.77;;;;;;;6.87;59.64;100941.86;1774346;80;21032;-72
2021/11/09 09:12:39;;;;;;;3.50;1.57;;;;;;;6.88;59.21;100941.39;1762532;80;20992;-71
2021/11/09 09:15:06;;;;;;;8.40;5.47;;;;;;;6.80;59.22;100943.12;1753323;80;21040;-70
2021/11/09 09:17:35;;;;;;;9.55;7.50;;;;;;;6.75;59.48;100953.47;1761927;80;22650;-69
2021/11/09 09:20:07;;;;;;;3.08;2.20;;;;;;;6.75;59.40;100957.41;1761885;80;20973;-68
2021/11/09 09:22:45;;;;;;;2.90;1.98;;;;;;;6.66;59.01;100964.47;1779612;80;21059;-69
2021/11/09 09:25:31;;;;;;;3.37;1.80;;;;;;;6.53;59.05;100971.69;1781226;80;21031;-69
2021/11/09 09:30:44;;;;;;;2.72;1.32;;;;;;;6.42;59.31;100972.73;1765042;81;21766;-69
2021/11/09 09:33:25;;;;;;;2.52;1.40;;;;;;;6.43;59.19;100977.52;1787410;80;20971;-69
2021/11/09 09:57:26;;;;;;;1.82;1.35;;;;;;;6.36;56.47;100991.88;1776765;80;22698;-69
2021/11/09 09:59:53;;;;;;;2.90;1.98;;;;;;;6.35;55.73;100988.87;1762391;80;20981;-67
2021/11/09 10:02:27;;;;;;;2.17;1.90;;;;;;;6.26;55.49;100985.78;1741371;81;21069;-67
2021/11/09 10:05:08;;;;;;;2.40;1.90;;;;;;;6.28;55.38;100985.73;1772286;80;20964;-70
2021/11/09 10:07:41;;;;;;;2.15;1.40;;;;;;;6.43;55.58;100983.61;1768890;80;20944;-69
2021/11/09 10:10:26;;;;;;;1.12;1.00;;;;;;;6.65;56.67;100979.37;1774289;80;22250;-69
2021/11/09 10:12:59;;;;;;;;;;;;;;;6.94;56.28;100968.61;1757069;80;20993;-68
2021/11/09 10:15:30;;;;;;;1.85;1.22;;;;;;;7.02;55.65;100980.02;1788942;80;20159;-69
2021/11/09 10:18:02;;;;;;;1.95;1.40;;;;;;;7.00;55.24;100981.88;1791176;80;20996;-68
2021/11/09 10:20:33;;;;;;;;;;;;;;;6.97;55.05;100980.75;1794139;80;21055;-68
2021/11/09 10:23:03;;;;;;;3.47;2.30;;;;;;;6.87;54.71;100979.09;1791144;80;22204;-69
2021/11/09 10:25:31;;;;;;;1.95;1.67;;;;;;;6.69;54.79;100991.89;1791148;80;21410;-69
2021/11/09 10:28:05;;;;;;;2.15;1.47;;;;;;;6.59;54.39;100991.53;1729243;81;21023;-68
2021/11/09 10:30:40;;;;;;;19.07;17.12;;;;;;;6.69;55.67;100989.27;1749923;82;21047;-68
2021/11/09 10:33:06;;;;;;;2.50;2.15;;;;;;;6.95;55.08;100986.09;1749659;81;21022;-68
2021/11/09 10:35:34;;;;;;;1.77;1.20;;;;;;;7.06;54.90;100998.16;1727288;81;21856;-68
2021/11/09 10:38:03;;;;;;;1.80;1.52;;;;;;;7.07;54.29;100999.86;1761238;81;20983;-68
2021/11/09 10:40:35;;;;;;;7.85;6.35;;;;;;;6.96;54.30;101010.58;1762151;81;21019;-69
2021/11/09 10:43:06;;;;;;;1.87;1.53;;;;;;;6.86;54.09;101012.84;1756694;81;20995;-68
2021/11/09 10:45:37;;;;;;;5.25;4.10;;;;;;;6.75;54.11;101009.92;1749064;81;21043;-66
2021/11/09 10:48:08;;;;;;;1.70;1.30;;;;;;;6.56;53.12;101009.61;1764231;81;21818;-66
2021/11/09 10:50:39;;;;;;;2.02;1.75;;;;;;;6.40;53.66;101011.80;1764207;81;21382;-67
2021/11/09 10:53:16;;;;;;;4.92;2.98;;;;;;;6.28;53.85;101015.44;1763808;81;20995;-69
2021/11/09 10:56:55;;;;;;;2.85;2.02;;;;;;;6.23;54.32;101020.06;1749780;81;21046;-69
2021/11/09 11:06:30;;;;;;;2.77;1.75;;;;;;;6.35;53.60;101038.25;1776902;80;20996;-74
2021/11/09 11:09:16;;;;;;;2.22;1.82;;;;;;;6.24;53.99;101043.20;1778931;79;21451;-71
2021/11/09 11:11:48;;;;;;;3.30;1.37;;;;;;;6.19;54.21;101047.38;1767509;80;20921;-71
2021/11/09 11:14:20;;;;;;;5.10;1.07;;;;;;;6.08;54.83;101056.26;1783131;80;22562;-72
2021/11/09 11:16:54;;;;;;;3.27;1.47;;;;;;;5.94;54.82;101042.50;1753711;80;21142;-72
2021/11/09 11:19:23;;;;;;;3.45;2.50;;;;;;;5.81;55.37;101047.94;1750479;81;21030;-70
2021/11/09 11:21:50;;;;;;;1.87;1.20;;;;;;;5.76;55.74;101055.16;1764223;81;21015;-72
2021/11/09 11:24:17;;;;;;;1.30;1.00;;;;;;;5.79;55.83;101050.23;1783088;80;21366;-72
2021/11/09 11:26:46;;;;;;;2.17;1.07;;;;;;;5.83;55.75;101040.00;1755257;80;22201;-72
2021/11/09 11:29:20;;;;;;;1.98;1.27;;;;;;;5.80;55.70;101052.80;1772427;80;21066;-72
2021/11/09 11:31:47;;;;;;;2.02;1.20;;;;;;;5.75;55.35;101056.09;1795169;79;20928;-71
2021/11/09 11:34:15;;;;;;;2.75;2.10;;;;;;;5.77;55.68;101062.10;1795153;79;20948;-71
2021/11/09 11:36:43;;;;;;;1.45;1.00;;;;;;;5.78;55.49;101055.09;1794152;80;21080;-69
2021/11/09 11:39:10;;;;;;;1.50;1.20;;;;;;;5.70;54.89;101060.27;1795253;80;21808;-71
2021/11/09 11:41:39;;;;;;;1.35;1.10;;;;;;;5.62;54.71;101051.91;1795466;79;21428;-71
2021/11/09 11:44:09;;;;;;;4.60;2.98;;;;;;;5.59;54.32;101053.81;1795329;80;20957;-72
2021/11/09 11:46:41;;;;;;;7.30;5.70;;;;;;;5.53;54.40;101054.97;1795581;80;20944;-73
2021/11/09 11:49:18;;;;;;;7.63;5.07;;;;;;;5.53;54.52;101060.67;1795869;80;21498;-72
2021/11/09 11:51:50;;;;;;;2.12;1.50;;;;;;;5.48;54.50;101060.87;1795624;80;21857;-72
2021/11/09 11:54:17;;;;;;;9.93;6.35;;;;;;;5.44;54.84;101075.05;1794456;80;21035;-70
2021/11/09 11:56:49;;;;;;;12.65;8.78;;;;;;;5.38;55.22;101084.03;1795518;80;21050;-70
2021/11/09 11:59:27;;;;;;;7.55;5.78;;;;;;;5.35;55.01;101091.20;1795560;79;20949;-70
2021/11/09 12:01:59;;;;;;;6.05;3.35;;;;;;;5.25;53.60;101104.33;1793303;80;20949;-70
2021/11/09 12:04:48;;;;;;;5.62;3.77;;;;;;;5.18;53.52;101108.98;1772811;80;22287;-69
2021/11/09 12:07:19;;;;;;;10.95;6.95;;;;;;;5.15;53.40;101099.51;1764195;81;20845;-69
2021/11/09 12:09:49;;;;;;;9.60;6.67;;;;;;;5.21;52.67;101101.44;1774050;80;21004;-70
2021/11/09 12:12:27;;;;;;;7.75;4.58;;;;;;;5.40;52.75;101094.44;1795573;79;21435;-70
2021/11/09 12:15:01;;;;;;;13.20;10.38;;;;;;;5.81;52.07;101093.81;1795654;80;20928;-69
2021/11/09 12:17:43;;;;;;;3.83;2.97;;;;;;;6.07;51.23;101100.89;1795194;80;21888;-68
2021/11/09 12:20:16;;;;;;;3.45;2.50;;;;;;;6.18;50.77;101105.17;1795814;79;21004;-68
2021/11/09 12:22:53;;;;;;;2.80;2.08;;;;;;;6.26;50.90;101113.02;1795656;80;21363;-69
2021/11/09 12:25:34;;;;;;;6.17;3.92;;;;;;;6.44;49.92;101115.66;1795533;79;21016;-69
2021/11/09 12:28:09;;;;;;;10.50;8.43;;;;;;;6.50;48.90;101123.23;1778915;80;21001;-69
2021/11/09 12:30:49;;;;;;;2.85;1.67;;;;;;;6.44;48.85;101124.84;1769401;80;21844;-68
2021/11/09 12:33:25;;;;;;;1.50;1.20;;;;;;;6.49;49.00;101127.63;1719502;83;21392;-69
2021/11/09 12:36:06;;;;;;;6.03;3.40;;;;;;;6.64;47.77;101127.77;1731421;83;21055;-69
2021/11/09 12:38:45;;;;;;;9.95;6.83;;;;;;;6.92;48.94;101133.30;1731510;83;21024;-68
2021/11/09 12:41:27;;;;;;;3.92;3.20;;;;;;;7.50;47.86;101139.39;1731618;83;21011;-68
2021/11/09 12:44:05;;;;;;;2.08;1.40;;;;;;;7.90;46.49;101132.78;1751226;80;21896;-69
2021/11/09 12:46:37;;;;;;;1.45;1.10;;;;;;;7.92;45.57;101144.55;1783204;80;21008;-68
2021/11/09 12:49:15;;;;;;;2.75;1.20;;;;;;;7.68;45.40;101144.12;1783118;80;21431;-69
2021/11/09 12:51:50;;;;;;;2.22;1.30;;;;;;;7.67;45.92;101145.05;1783225;80;20988;-69
2021/11/09 12:54:27;;;;;;;1.75;1.30;;;;;;;7.58;46.00;101152.13;1782943;80;20980;-69
2021/11/09 12:56:58;;;;;;;1.77;1.20;;;;;;;7.58;45.60;101161.33;1783075;80;21821;-69
2021/11/09 12:59:39;;;;;;;1.25;1.12;;;;;;;7.41;45.70;101153.88;1759431;80;20984;-69
2021/11/09 13:09:54;;;;;;;3.05;1.05;;;;;;;7.00;45.64;101178.41;1748571;81;21047;-70
2021/11/09 13:12:32;;;;;;;1.65;0.80;;;;;;;6.66;45.68;101171.84;1787307;80;21445;-70
2021/11/09 13:15:08;;;;;;;6.22;3.65;;;;;;;6.39;45.64;101175.41;1761732;81;20958;-70
2021/11/09 13:17:45;;;;;;;1.77;0.90;;;;;;;6.25;46.57;101182.63;1762314;80;21487;-71
2021/11/09 13:20:24;;;;;;;1.70;1.00;;;;;;;6.08;46.67;101196.57;1761761;81;21023;-70
2021/11/09 13:23:11;;;;;;;3.22;1.10;;;;;;;5.85;47.75;101200.69;1757475;81;22684;-71
2021/11/09 13:25:51;;;;;;;1.37;1.15;;;;;;;5.66;48.30;101209.86;1761807;81;20920;-71
2021/11/09 13:28:33;;;;;;;3.37;2.77;;;;;;;5.41;48.50;101215.37;1747894;81;20960;-70
2021/11/09 13:30:59;;;;;;;4.47;2.45;;;;;;;5.13;49.31;101227.05;1738743;82;20940;-70
2021/11/09 13:33:26;;;;;;;7.72;6.62;;;;;;;4.97;49.27;101224.69;1726443;83;20987;-70
2021/11/09 13:35:54;;;;;;;16.27;12.18;;;;;;;4.87;49.75;101233.39;1727822;81;21835;-70
2021/11/09 13:38:35;;;;;;;7.72;5.40;;;;;;;4.88;50.01;101244.25;1725681;83;21498;-69
2021/11/09 13:41:15;;;;;;;2.67;1.25;;;;;;;4.86;49.69;101250.01;1710469;84;21047;-72
2021/11/09 13:43:50;;;;;;;4.17;2.60;;;;;;;4.69;49.27;101249.85;1725608;83;21052;-72
2021/11/09 13:46:19;;;;;;;4.85;3.33;;;;;;;4.46;49.91;101256.02;1710353;84;20996;-72